Home > Products > Valid Products > TAF

000
FTUS45 KPIH 251731 CCA
TAFIDA
TAF COR
KIDA 251731Z 2518/2618 22010KT P6SM BKN025 BKN200
     FM252100 VRB04KT P6SM VCTS FEW050CB SCT100 SCT200
     FM260300 09007KT P6SM SCT050 BKN080 OVC110
     FM261000 32015G25KT P6SM VCSH BKN025 OVC070
     FM261300 31010KT P6SM -SHRA BKN015 OVC040=



000
FTUS45 KPIH 251720
TAFIDA
TAF
KIDA 251720Z 2518/2618 22010KT P6SM SCT025 SCT200
     FM252100 VRB04KT P6SM VCTS FEW050CB SCT100 SCT200
     FM260300 09007KT P6SM SCT050 BKN080 OVC110
     FM261000 32015G25KT P6SM VCSH BKN025 OVC070
     FM261300 31010KT P6SM -SHRA BKN015 OVC040=



000
FTUS45 KPIH 251720
TAFIDA
TAF
KIDA 251720Z 2518/2618 22010KT P6SM SCT025 SCT200
     FM252100 VRB04KT P6SM VCTS FEW050CB SCT100 SCT200
     FM260300 09007KT P6SM SCT050 BKN080 OVC110
     FM261000 32015G25KT P6SM VCSH BKN025 OVC070
     FM261300 31010KT P6SM -SHRA BKN015 OVC040=



000
FTUS45 KPIH 251720
TAFSUN
TAF
KSUN 251720Z 2518/2618 14007KT P6SM VCTS FEW050CB SCT130
     FM260000 25010KT P6SM VCTS SCT040CB SCT100 BKN130
     FM260300 31015KT P6SM VCSH SCT040 BKN100 BKN130
     FM261200 32015KT P6SM FEW040 SCT080=



000
FTUS45 KPIH 251720
TAFPIH
TAF
KPIH 251720Z 2518/2618 25010KT P6SM SCT035 SCT050
     FM252200 VRB05KT P6SM VCTS FEW060CB BKN130
     FM260300 26015G25KT P6SM VCSH SCT060 BKN080 OVC100
     FM260800 25020G30KT P6SM -SHRA BKN025 OVC060
     FM261500 25010KT P6SM VCSH BKN025 OVC060=



000
FTUS45 KPIH 251720
TAFBYI
TAF
KBYI 251720Z 2518/2618 31007KT P6SM VCSH SCT050 BKN140
     FM252100 VRB05KT P6SM BKN060 BKN140
     FM260300 31015G25KT P6SM -SHRA SCT035 OVC060
     FM260500 29015G25KT P6SM -SHRA SCT015 OVC035
     FM260900 27015G25KT P6SM VCSH SCT008 BKN060 BKN120=



000
FTUS45 KPIH 251720
TAFSUN
TAF
KSUN 251720Z 2518/2618 14007KT P6SM VCTS FEW050CB SCT130
     FM260000 25010KT P6SM VCTS SCT040CB SCT100 BKN130
     FM260300 31015KT P6SM VCSH SCT040 BKN100 BKN130
     FM261200 32015KT P6SM FEW040 SCT080=



000
FTUS45 KPIH 251720
TAFBYI
TAF
KBYI 251720Z 2518/2618 31007KT P6SM VCSH SCT050 BKN140
     FM252100 VRB05KT P6SM BKN060 BKN140
     FM260300 31015G25KT P6SM -SHRA SCT035 OVC060
     FM260500 29015G25KT P6SM -SHRA SCT015 OVC035
     FM260900 27015G25KT P6SM VCSH SCT008 BKN060 BKN120=



000
FTUS45 KPIH 251720
TAFPIH
TAF
KPIH 251720Z 2518/2618 25010KT P6SM SCT035 SCT050
     FM252200 VRB05KT P6SM VCTS FEW060CB BKN130
     FM260300 26015G25KT P6SM VCSH SCT060 BKN080 OVC100
     FM260800 25020G30KT P6SM -SHRA BKN025 OVC060
     FM261500 25010KT P6SM VCSH BKN025 OVC060=



000
FTUS45 KPIH 251559 AAC
TAFIDA
TAF AMD
KIDA 251559Z 2516/2612 22010KT P6SM SCT025 BKN200
     FM252100 22010KT P6SM VCTS SCT035 OVC100CB
     FM260300 22012KT 5SM -RA BR SCT008 OVC015=



000
FTUS45 KPIH 251559 AAC
TAFIDA
TAF AMD
KIDA 251559Z 2516/2612 22010KT P6SM SCT025 BKN200
     FM252100 22010KT P6SM VCTS SCT035 OVC100CB
     FM260300 22012KT 5SM -RA BR SCT008 OVC015=



000
FTUS45 KPIH 251405 AAB
TAFIDA
TAF AMD
KIDA 251405Z 2514/2612 21008KT P6SM OVC015
     FM251700 22010KT P6SM BKN025 BKN200
     FM252100 22010KT P6SM VCTS SCT035 OVC100CB
     FM260300 22012KT 5SM -RA BR SCT008 OVC015=



000
FTUS45 KPIH 251405 AAB
TAFIDA
TAF AMD
KIDA 251405Z 2514/2612 21008KT P6SM OVC015
     FM251700 22010KT P6SM BKN025 BKN200
     FM252100 22010KT P6SM VCTS SCT035 OVC100CB
     FM260300 22012KT 5SM -RA BR SCT008 OVC015=



000
FTUS45 KPIH 251239 AAA
TAFIDA
TAF AMD
KIDA 251239Z 2513/2612 VRB05KT P6SM SCT015 OVC030
      TEMPO 2513/2516 BKN015
     FM252000 22010KT P6SM VCTS SCT035 OVC100CB
     FM260300 22012KT 5SM -RA BR SCT008 OVC015=



000
FTUS45 KPIH 251127
TAFPIH
TAF
KPIH 251127Z 2512/2612 23013KT P6SM SCT060 SCT100
     FM252000 25009KT P6SM VCTS SCT020 BKN040CB OVC100
     FM260200 24012G22KT 5SM -RA BR SCT010 OVC020=



000
FTUS45 KPIH 251127
TAFBYI
TAF
KBYI 251127Z 2512/2612 24010KT P6SM SCT100
     FM251800 27008KT P6SM VCTS SCT010 BKN035CB OVC080
     FM260100 25012G22KT 5SM -RA BR SCT010 BKN020=



000
FTUS45 KPIH 251127
TAFSUN
TAF
KSUN 251127Z 2512/2612 VRB05KT P6SM SCT100 BKN200
     FM251700 13007KT P6SM -SHRA SCT015 BKN040 OVC100
     FM260200 32009KT 6SM -SHRA BKN015=



000
FTUS45 KPIH 251127
TAFIDA
TAF
KIDA 251127Z 2512/2612 VRB05KT P6SM SCT025 OVC100
      TEMPO 2512/2515 BKN025
     FM252000 22010KT P6SM VCTS SCT035 OVC100CB
     FM260300 22012KT 5SM -RA BR SCT008 OVC015=



000
FTUS45 KPIH 251127
TAFIDA
TAF
KIDA 251127Z 2512/2612 VRB05KT P6SM SCT025 OVC100
      TEMPO 2512/2515 BKN025
     FM252000 22010KT P6SM VCTS SCT035 OVC100CB
     FM260300 22012KT 5SM -RA BR SCT008 OVC015=



000
FTUS45 KPIH 251127
TAFPIH
TAF
KPIH 251127Z 2512/2612 23013KT P6SM SCT060 SCT100
     FM252000 25009KT P6SM VCTS SCT020 BKN040CB OVC100
     FM260200 24012G22KT 5SM -RA BR SCT010 OVC020=



000
FTUS45 KPIH 251127
TAFBYI
TAF
KBYI 251127Z 2512/2612 24010KT P6SM SCT100
     FM251800 27008KT P6SM VCTS SCT010 BKN035CB OVC080
     FM260100 25012G22KT 5SM -RA BR SCT010 BKN020=



000
FTUS45 KPIH 251127
TAFSUN
TAF
KSUN 251127Z 2512/2612 VRB05KT P6SM SCT100 BKN200
     FM251700 13007KT P6SM -SHRA SCT015 BKN040 OVC100
     FM260200 32009KT 6SM -SHRA BKN015=



000
FTUS45 KPIH 250820 AAA
TAFIDA
TAF AMD
KIDA 250820Z 2508/2606 23015KT P6SM VCSH SCT025 BKN050
     FM251000 21012KT P6SM FEW030 OVC100
     FM251900 24010KT P6SM VCSH SCT015 BKN035 OVC100
     FM260300 23010KT 5SM -RA BR SCT008 OVC015=



000
FTUS45 KPIH 250520
TAFSUN
TAF
KSUN 250520Z 2506/2606 31011KT P6SM SCT100 BKN200
     FM251700 13007KT P6SM -SHRA SCT015 BKN040 OVC100=



000
FTUS45 KPIH 250520
TAFIDA
TAF
KIDA 250520Z 2506/2606 21012KT P6SM VCSH SCT025 BKN050
      TEMPO 2506/2509 -SHRA BKN025
     FM250900 21008KT P6SM FEW030 OVC100
     FM251900 24010KT P6SM VCSH SCT015 BKN035 OVC100
     FM260300 23010KT 5SM -RA BR SCT008 OVC015=



000
FTUS45 KPIH 250520
TAFIDA
TAF
KIDA 250520Z 2506/2606 21012KT P6SM VCSH SCT025 BKN050
      TEMPO 2506/2509 -SHRA BKN025
     FM250900 21008KT P6SM FEW030 OVC100
     FM251900 24010KT P6SM VCSH SCT015 BKN035 OVC100
     FM260300 23010KT 5SM -RA BR SCT008 OVC015=



000
FTUS45 KPIH 250520
TAFBYI
TAF
KBYI 250520Z 2506/2606 23009KT P6SM OVC100
     FM251700 27008KT P6SM -SHRA SCT010 BKN035 OVC080
     FM260100 27012KT 5SM -RA BR SCT010 BKN020=



000
FTUS45 KPIH 250520
TAFPIH
TAF
KPIH 250520Z 2506/2606 22014KT P6SM SCT050 OVC100
     FM250900 22008KT P6SM OVC100
     FM251800 23009KT P6SM -SHRA SCT020 BKN040 OVC100
     FM260200 24012KT 5SM -RA BR SCT010 OVC020=



000
FTUS45 KPIH 250520
TAFPIH
TAF
KPIH 250520Z 2506/2606 22014KT P6SM SCT050 OVC100
     FM250900 22008KT P6SM OVC100
     FM251800 23009KT P6SM -SHRA SCT020 BKN040 OVC100
     FM260200 24012KT 5SM -RA BR SCT010 OVC020=



000
FTUS45 KPIH 250520
TAFBYI
TAF
KBYI 250520Z 2506/2606 23009KT P6SM OVC100
     FM251700 27008KT P6SM -SHRA SCT010 BKN035 OVC080
     FM260100 27012KT 5SM -RA BR SCT010 BKN020=



000
FTUS45 KPIH 250520
TAFSUN
TAF
KSUN 250520Z 2506/2606 31011KT P6SM SCT100 BKN200
     FM251700 13007KT P6SM -SHRA SCT015 BKN040 OVC100=



000
FTUS45 KPIH 250202 AAA
TAFSUN
TAF AMD
KSUN 250202Z 2502/2524 21011KT P6SM SCT030 BKN100
     FM250400 31011KT P6SM SCT100 BKN200
     FM251700 13007KT P6SM -RA SCT015 BKN040 OVC100=



000
FTUS45 KPIH 250202 AAA
TAFSUN
TAF AMD
KSUN 250202Z 2502/2524 21011KT P6SM SCT030 BKN100
     FM250400 31011KT P6SM SCT100 BKN200
     FM251700 13007KT P6SM -RA SCT015 BKN040 OVC100=



000
FTUS45 KPIH 250151 AAA
TAFPIH
TAF AMD
KPIH 250151Z 2502/2524 24014G21KT P6SM -SHRA BKN025 OVC050
     FM250300 22014KT P6SM SCT050 OVC100
     FM250900 22008KT P6SM OVC100
     FM251700 23009KT P6SM -RA SCT020 BKN040 OVC100=



000
FTUS45 KPIH 242322
TAFBYI
TAF
KBYI 242322Z 2500/2524 26012G20KT P6SM -SHRA OVC050
     FM250100 24014KT P6SM BKN100
     FM250300 22009KT P6SM OVC100
     FM251600 27008KT P6SM -RA SCT010 BKN035 OVC080=



000
FTUS45 KPIH 242322
TAFIDA
TAF
KIDA 242322Z 2500/2524 22019G26KT P6SM VCSH BKN060
     FM250200 21012KT P6SM VCSH BKN100
     FM250900 21008KT P6SM OVC100
     FM251900 24010KT P6SM -RA SCT015 BKN035 OVC100=



000
FTUS45 KPIH 242322
TAFPIH
TAF
KPIH 242322Z 2500/2524 24014G21KT P6SM -SHRA SCT025 OVC050
      TEMPO 2500/2502 BKN025
     FM250300 22014KT P6SM SCT050 OVC100
     FM250900 22008KT P6SM OVC100
     FM251700 23009KT P6SM -RA SCT020 BKN040 OVC100=



000
FTUS45 KPIH 242322
TAFSUN
TAF
KSUN 242322Z 2500/2524 14008KT P6SM SCT030 BKN100
     FM250300 31011KT P6SM SCT100 BKN200
     FM251700 13007KT P6SM -RA SCT015 BKN040 OVC100=



000
FTUS45 KPIH 242322
TAFIDA
TAF
KIDA 242322Z 2500/2524 22019G26KT P6SM VCSH BKN060
     FM250200 21012KT P6SM VCSH BKN100
     FM250900 21008KT P6SM OVC100
     FM251900 24010KT P6SM -RA SCT015 BKN035 OVC100=



000
FTUS45 KPIH 242322
TAFBYI
TAF
KBYI 242322Z 2500/2524 26012G20KT P6SM -SHRA OVC050
     FM250100 24014KT P6SM BKN100
     FM250300 22009KT P6SM OVC100
     FM251600 27008KT P6SM -RA SCT010 BKN035 OVC080=



000
FTUS45 KPIH 242322
TAFPIH
TAF
KPIH 242322Z 2500/2524 24014G21KT P6SM -SHRA SCT025 OVC050
      TEMPO 2500/2502 BKN025
     FM250300 22014KT P6SM SCT050 OVC100
     FM250900 22008KT P6SM OVC100
     FM251700 23009KT P6SM -RA SCT020 BKN040 OVC100=



000
FTUS45 KPIH 242322
TAFSUN
TAF
KSUN 242322Z 2500/2524 14008KT P6SM SCT030 BKN100
     FM250300 31011KT P6SM SCT100 BKN200
     FM251700 13007KT P6SM -RA SCT015 BKN040 OVC100=



000
FTUS45 KPIH 241925 AAB
TAFPIH
TAF AMD
KPIH 241925Z 2419/2518 24010G20KT P6SM SCT080 OVC120
     FM242100 24011G21KT P6SM -SHRA SCT050 OVC070
     FM250200 22011G21KT P6SM VCSH SCT050 OVC100
     FM251000 22008KT P6SM OVC100=



000
FTUS45 KPIH 241925 AAB
TAFPIH
TAF AMD
KPIH 241925Z 2419/2518 24010G20KT P6SM SCT080 OVC120
     FM242100 24011G21KT P6SM -SHRA SCT050 OVC070
     FM250200 22011G21KT P6SM VCSH SCT050 OVC100
     FM251000 22008KT P6SM OVC100=



000
FTUS45 KPIH 241921 AAA
TAFSUN
TAF AMD
KSUN 241921Z 2419/2518 14011KT P6SM -SHRA BKN040 OVC050
      TEMPO 2419/2422 -RA OVC015
     FM242200 21010KT P6SM SCT030 BKN100
     FM250300 31011KT P6SM SCT100 BKN200=



000
FTUS45 KPIH 241720
TAFIDA
TAF
KIDA 241720Z 2418/2518 22010G19KT P6SM SCT080 OVC120
     FM241900 22019G26KT P6SM VCSH BKN060
     FM250200 21012KT P6SM VCSH BKN100
     FM250900 21008KT P6SM OVC100=



000
FTUS45 KPIH 241720
TAFPIH
TAF
KPIH 241720Z 2418/2518 24010G20KT P6SM SCT080 OVC120
     FM242000 24018G28KT P6SM VCSH SCT050 BKN080
     FM250200 22011G21KT P6SM VCSH SCT050 OVC100
     FM251000 22008KT P6SM OVC100=



000
FTUS45 KPIH 241720
TAFIDA
TAF
KIDA 241720Z 2418/2518 22010G19KT P6SM SCT080 OVC120
     FM241900 22019G26KT P6SM VCSH BKN060
     FM250200 21012KT P6SM VCSH BKN100
     FM250900 21008KT P6SM OVC100=



000
FTUS45 KPIH 241720
TAFSUN
TAF
KSUN 241720Z 2418/2518 14011KT P6SM -SHRA BKN040 OVC050
     FM242200 21010KT P6SM SCT030 BKN100
     FM250300 31011KT P6SM SCT100 BKN200=



000
FTUS45 KPIH 241720
TAFPIH
TAF
KPIH 241720Z 2418/2518 24010G20KT P6SM SCT080 OVC120
     FM242000 24018G28KT P6SM VCSH SCT050 BKN080
     FM250200 22011G21KT P6SM VCSH SCT050 OVC100
     FM251000 22008KT P6SM OVC100=



000
FTUS45 KPIH 241720
TAFSUN
TAF
KSUN 241720Z 2418/2518 14011KT P6SM -SHRA BKN040 OVC050
     FM242200 21010KT P6SM SCT030 BKN100
     FM250300 31011KT P6SM SCT100 BKN200=



000
FTUS45 KPIH 241720
TAFBYI
TAF
KBYI 241720Z 2418/2518 26016G25KT P6SM VCSH SCT030 OVC080
     FM242000 26012G22KT P6SM -SHRA OVC050
     FM250100 24014KT P6SM BKN100
     FM250300 22009KT P6SM OVC100=



000
FTUS45 KPIH 241720
TAFBYI
TAF
KBYI 241720Z 2418/2518 26016G25KT P6SM VCSH SCT030 OVC080
     FM242000 26012G22KT P6SM -SHRA OVC050
     FM250100 24014KT P6SM BKN100
     FM250300 22009KT P6SM OVC100=



000
FTUS45 KPIH 241120
TAFIDA
TAF
KIDA 241120Z 2412/2512 VRB05KT P6SM BKN200
     FM241600 23010G15KT P6SM FEW080 SCT090 BKN130
     FM241900 22019G26KT P6SM VCSH BKN060
     FM250200 21012KT P6SM BKN100=



000
FTUS45 KPIH 241120
TAFPIH
TAF
KPIH 241120Z 2412/2512 VRB05KT P6SM BKN200
     FM241500 23010G15KT P6SM FEW080 SCT100 BKN150
     FM241900 24018G25KT P6SM VCSH SCT050 BKN080
     FM250200 22012KT P6SM BKN100=



000
FTUS45 KPIH 241120
TAFBYI
TAF
KBYI 241120Z 2412/2512 22008KT P6SM BKN200
     FM241500 26012G18KT P6SM FEW090 SCT110 BKN160
     FM241800 26016G25KT P6SM -SHRA SCT020 BKN050
     FM250100 24014KT P6SM BKN100=



000
FTUS45 KPIH 241120
TAFSUN
TAF
KSUN 241120Z 2412/2512 VRB05KT P6SM SCT120 OVC200
     FM241600 15011KT P6SM -SHRA BKN040 OVC050
     FM242100 21010KT P6SM SCT030 BKN100
     FM250300 31008KT P6SM BKN100=



000
FTUS45 KPIH 241120
TAFBYI
TAF
KBYI 241120Z 2412/2512 22008KT P6SM BKN200
     FM241500 26012G18KT P6SM FEW090 SCT110 BKN160
     FM241800 26016G25KT P6SM -SHRA SCT020 BKN050
     FM250100 24014KT P6SM BKN100=



000
FTUS45 KPIH 241120
TAFIDA
TAF
KIDA 241120Z 2412/2512 VRB05KT P6SM BKN200
     FM241600 23010G15KT P6SM FEW080 SCT090 BKN130
     FM241900 22019G26KT P6SM VCSH BKN060
     FM250200 21012KT P6SM BKN100=



000
FTUS45 KPIH 241120
TAFPIH
TAF
KPIH 241120Z 2412/2512 VRB05KT P6SM BKN200
     FM241500 23010G15KT P6SM FEW080 SCT100 BKN150
     FM241900 24018G25KT P6SM VCSH SCT050 BKN080
     FM250200 22012KT P6SM BKN100=



000
FTUS45 KPIH 241120
TAFSUN
TAF
KSUN 241120Z 2412/2512 VRB05KT P6SM SCT120 OVC200
     FM241600 15011KT P6SM -SHRA BKN040 OVC050
     FM242100 21010KT P6SM SCT030 BKN100
     FM250300 31008KT P6SM BKN100=



000
FTUS45 KPIH 240520
TAFBYI
TAF
KBYI 240520Z 2406/2506 21009KT P6SM SKC
     FM241500 26012G18KT P6SM FEW090 SCT110 BKN160
     FM241800 26016G25KT P6SM -SHRA SCT020 BKN050
     FM250100 27014KT P6SM BKN100=



000
FTUS45 KPIH 240520
TAFSUN
TAF
KSUN 240520Z 2406/2506 31008KT P6SM SCT120 OVC200
     FM241600 15011KT P6SM -SHRA BKN020 OVC050
     FM242100 21010KT P6SM SCT030 BKN100
     FM250300 31008KT P6SM BKN100=



000
FTUS45 KPIH 240520
TAFIDA
TAF
KIDA 240520Z 2406/2506 19008KT P6SM SKC
     FM241600 23010G15KT P6SM VCSH FEW080 SCT090 BKN130
     FM242100 22019G26KT P6SM -SHRA SCT020 BKN060
     FM250200 21012KT P6SM BKN100=



000
FTUS45 KPIH 240520
TAFPIH
TAF
KPIH 240520Z 2406/2506 19010KT P6SM FEW200
     FM241500 23010G15KT P6SM VCSH FEW080 SCT100 BKN150
     FM242100 24018G25KT P6SM VCSH SCT050 BKN080
     FM250200 24012KT P6SM BKN100=



000
FTUS45 KPIH 232320
TAFBYI
TAF
KBYI 232320Z 2400/2424 27011KT P6SM SCT150
     FM240200 23007KT P6SM SKC
     FM241500 26012G18KT P6SM VCSH FEW090 SCT110 BKN160
     FM241900 26016G25KT P6SM VCSH SCT050 BKN080=



000
FTUS45 KPIH 232320
TAFIDA
TAF
KIDA 232320Z 2400/2424 21014G20KT P6SM SCT100
     FM240200 20008KT P6SM SKC
     FM241600 18010G15KT P6SM VCSH FEW080 SCT090 BKN130
     FM242100 22019G26KT P6SM -SHRA SCT020 BKN060=



000
FTUS45 KPIH 232320
TAFSUN
TAF
KSUN 232320Z 2400/2424 20011G20KT P6SM SKC
     FM240200 31008KT P6SM SCT120 OVC200
     FM241700 15011KT P6SM -SHRA SCT020 BKN040 OVC060=



000
FTUS45 KPIH 232320
TAFPIH
TAF
KPIH 232320Z 2400/2424 24014G20KT P6SM SCT080
     FM240300 20007KT P6SM FEW200
     FM241600 19010G15KT P6SM VCSH FEW080 SCT100 BKN150
     FM242100 24018G25KT P6SM VCSH SCT050 BKN080=



000
FTUS45 KPIH 232320
TAFPIH
TAF
KPIH 232320Z 2400/2424 24014G20KT P6SM SCT080
     FM240300 20007KT P6SM FEW200
     FM241600 19010G15KT P6SM VCSH FEW080 SCT100 BKN150
     FM242100 24018G25KT P6SM VCSH SCT050 BKN080=



000
FTUS45 KPIH 232320
TAFSUN
TAF
KSUN 232320Z 2400/2424 20011G20KT P6SM SKC
     FM240200 31008KT P6SM SCT120 OVC200
     FM241700 15011KT P6SM -SHRA SCT020 BKN040 OVC060=



000
FTUS45 KPIH 232320
TAFIDA
TAF
KIDA 232320Z 2400/2424 21014G20KT P6SM SCT100
     FM240200 20008KT P6SM SKC
     FM241600 18010G15KT P6SM VCSH FEW080 SCT090 BKN130
     FM242100 22019G26KT P6SM -SHRA SCT020 BKN060=



000
FTUS45 KPIH 232320
TAFBYI
TAF
KBYI 232320Z 2400/2424 27011KT P6SM SCT150
     FM240200 23007KT P6SM SKC
     FM241500 26012G18KT P6SM VCSH FEW090 SCT110 BKN160
     FM241900 26016G25KT P6SM VCSH SCT050 BKN080=



000
FTUS45 KPIH 231729
TAFSUN
TAF
KSUN 231729Z 2318/2418 13011KT P6SM SCT150
     FM232200 21011KT P6SM SKC
     FM240200 31008KT P6SM FEW200
     FM241700 15011KT P6SM -SHRA SCT020 BKN040 OVC060=



000
FTUS45 KPIH 231729
TAFPIH
TAF
KPIH 231729Z 2318/2418 22014KT P6SM VCSH FEW050 BKN070 BKN090
     FM231900 25015G25KT P6SM VCSH SCT080 BKN100
     FM240300 19007KT P6SM FEW200
     FM241600 19010G15KT P6SM VCSH FEW080 SCT100 BKN150=



000
FTUS45 KPIH 231729
TAFBYI
TAF
KBYI 231729Z 2318/2418 27012G18KT P6SM SCT150
     FM240200 23007KT P6SM SKC
     FM241500 26012G18KT P6SM VCSH FEW090 SCT110 BKN160=



000
FTUS45 KPIH 231729
TAFIDA
TAF
KIDA 231729Z 2318/2418 21012G18KT P6SM VCSH SCT045 BKN080
     FM231900 22015G25KT P6SM VCSH FEW050 BKN090 BKN150
     FM240200 20008KT P6SM FEW200
     FM241600 18010G15KT P6SM VCSH FEW080 SCT090 BKN130=



000
FTUS45 KPIH 231120
TAFPIH
TAF
KPIH 231120Z 2312/2412 22014KT P6SM VCSH BKN100 OVC200
     FM231900 25015G25KT P6SM BKN120
     FM240300 19007KT P6SM SKC=



000
FTUS45 KPIH 231120
TAFSUN
TAF
KSUN 231120Z 2312/2412 31008KT P6SM BKN120 OVC200
     FM231800 14009KT P6SM SCT150
     FM232200 21008KT P6SM SKC
     FM240200 31008KT P6SM SKC=



000
FTUS45 KPIH 231120
TAFBYI
TAF
KBYI 231120Z 2312/2412 24012KT P6SM VCSH BKN060 OVC100
     FM231800 27012G20KT P6SM SCT150
     FM240200 23007KT P6SM SKC=



000
FTUS45 KPIH 231120
TAFIDA
TAF
KIDA 231120Z 2312/2412 21014KT P6SM VCSH BKN100 OVC200
     FM231900 21015G25KT P6SM SCT150
     FM240200 20008KT P6SM SKC=



000
FTUS45 KPIH 231120
TAFPIH
TAF
KPIH 231120Z 2312/2412 22014KT P6SM VCSH BKN100 OVC200
     FM231900 25015G25KT P6SM BKN120
     FM240300 19007KT P6SM SKC=



000
FTUS45 KPIH 231120
TAFSUN
TAF
KSUN 231120Z 2312/2412 31008KT P6SM BKN120 OVC200
     FM231800 14009KT P6SM SCT150
     FM232200 21008KT P6SM SKC
     FM240200 31008KT P6SM SKC=



000
FTUS45 KPIH 231120
TAFBYI
TAF
KBYI 231120Z 2312/2412 24012KT P6SM VCSH BKN060 OVC100
     FM231800 27012G20KT P6SM SCT150
     FM240200 23007KT P6SM SKC=



000
FTUS45 KPIH 231120
TAFIDA
TAF
KIDA 231120Z 2312/2412 21014KT P6SM VCSH BKN100 OVC200
     FM231900 21015G25KT P6SM SCT150
     FM240200 20008KT P6SM SKC=



000
FTUS45 KPIH 230734 AAA
TAFIDA
TAF AMD
KIDA 230734Z 2308/2406 21014KT P6SM BKN100 OVC200
     FM231900 22015G25KT P6SM SCT150
     FM240200 20008KT P6SM SKC=



000
FTUS45 KPIH 230734 AAA
TAFIDA
TAF AMD
KIDA 230734Z 2308/2406 21014KT P6SM BKN100 OVC200
     FM231900 22015G25KT P6SM SCT150
     FM240200 20008KT P6SM SKC=



000
FTUS45 KPIH 230520
TAFPIH
TAF
KPIH 230520Z 2306/2406 20011KT P6SM VCTS SCT070CB BKN100 OVC200
     FM230800 21009KT P6SM BKN100 OVC200
     FM231900 25015G25KT P6SM SCT150
     FM240300 19007KT P6SM SKC=



000
FTUS45 KPIH 230520
TAFIDA
TAF
KIDA 230520Z 2306/2406 21008KT P6SM BKN100 OVC200
     FM231900 22015G25KT P6SM SCT150
     FM240200 20008KT P6SM SKC=



000
FTUS45 KPIH 230520
TAFSUN
TAF
KSUN 230520Z 2306/2406 31011KT P6SM BKN150 OVC200
     FM231800 14009KT P6SM SCT150
     FM232200 21008KT P6SM SKC
     FM240200 31008KT P6SM SKC=



000
FTUS45 KPIH 230520
TAFBYI
TAF
KBYI 230520Z 2306/2406 24012KT P6SM BKN150 OVC200
     FM231800 27012G20KT P6SM SCT150
     FM240200 22007KT P6SM SKC=



000
FTUS45 KPIH 230520
TAFPIH
TAF
KPIH 230520Z 2306/2406 20011KT P6SM VCTS SCT070CB BKN100 OVC200
     FM230800 21009KT P6SM BKN100 OVC200
     FM231900 25015G25KT P6SM SCT150
     FM240300 19007KT P6SM SKC=



000
FTUS45 KPIH 230520
TAFIDA
TAF
KIDA 230520Z 2306/2406 21008KT P6SM BKN100 OVC200
     FM231900 22015G25KT P6SM SCT150
     FM240200 20008KT P6SM SKC=



000
FTUS45 KPIH 230520
TAFBYI
TAF
KBYI 230520Z 2306/2406 24012KT P6SM BKN150 OVC200
     FM231800 27012G20KT P6SM SCT150
     FM240200 22007KT P6SM SKC=



000
FTUS45 KPIH 230520
TAFSUN
TAF
KSUN 230520Z 2306/2406 31011KT P6SM BKN150 OVC200
     FM231800 14009KT P6SM SCT150
     FM232200 21008KT P6SM SKC
     FM240200 31008KT P6SM SKC=



000
FTUS45 KPIH 222326
TAFBYI
TAF
KBYI 222326Z 2300/2324 28011KT P6SM FEW080
     FM230400 24012KT P6SM BKN150 OVC200
     FM231800 27012G20KT P6SM SCT150=



000
FTUS45 KPIH 222326
TAFIDA
TAF
KIDA 222326Z 2300/2324 22011KT P6SM SCT080
     FM230400 21008KT P6SM BKN100 OVC200
     FM231900 22015G25KT P6SM SCT150=



000
FTUS45 KPIH 222326
TAFSUN
TAF
KSUN 222326Z 2300/2324 22011KT P6SM VCTS SCT050CB BKN120
     FM230300 31011KT P6SM BKN150 OVC200
     FM231800 14009KT P6SM SCT150=



000
FTUS45 KPIH 222326
TAFPIH
TAF
KPIH 222326Z 2300/2324 26011KT P6SM SCT080
     FM230400 21011KT P6SM BKN100 OVC200
     FM231900 25015G25KT P6SM SCT150=



000
FTUS45 KPIH 222326
TAFIDA
TAF
KIDA 222326Z 2300/2324 22011KT P6SM SCT080
     FM230400 21008KT P6SM BKN100 OVC200
     FM231900 22015G25KT P6SM SCT150=



000
FTUS45 KPIH 222326
TAFSUN
TAF
KSUN 222326Z 2300/2324 22011KT P6SM VCTS SCT050CB BKN120
     FM230300 31011KT P6SM BKN150 OVC200
     FM231800 14009KT P6SM SCT150=



000
FTUS45 KPIH 222326
TAFPIH
TAF
KPIH 222326Z 2300/2324 26011KT P6SM SCT080
     FM230400 21011KT P6SM BKN100 OVC200
     FM231900 25015G25KT P6SM SCT150=



000
FTUS45 KPIH 222326
TAFBYI
TAF
KBYI 222326Z 2300/2324 28011KT P6SM FEW080
     FM230400 24012KT P6SM BKN150 OVC200
     FM231800 27012G20KT P6SM SCT150=



    US Dept of Commerce
    National Oceanic and Atmospheric Administration
    National Weather Service
    1325 East West Highway
    Silver Spring, MD 20910
    Page Author: NWS Internet Services Team
Disclaimer
Information Quality
Credits
Glossary
Privacy Policy
Freedom of Information Act (FOIA)
About Us
Career Opportunities